Aurora — V7BS9 — position and weather

sailwx.info

Track history (hours):
 
Tides and Currents Weather Stations Pressure Air Temp Water Temp Dewpoint Dewpoint Depression Visibility Wind Speed Wind Dir Waves Ship Positions

Aurora

Last reported at 2015-Apr-12 13:19 UTC. Time now 2015-May-06 06:25 UTC.
Position N 27°41' W 082°34'.
Warning: this ship's position is 23 days out of date.

Length 170 m; draft 6.8 m.

Type: Tanker. MMSI: 538001356.

Date/timePositionNaut miles runAvg speedWind from/ knotsBaromVisibWave heightAir tempDewpointWater temp
2015-Apr-12 13:19N 27°41' W 082°34'811.2
2015-Apr-12 12:33N 27°48' W 082°29'7 7.0
2015-Apr-12 11:33N 27°54' W 082°25'1 0.5
2015-Apr-12 10:33N 27°54' W 082°25'0 0.0
2015-Apr-12 09:32N 27°54' W 082°25'0 0.0
2015-Apr-12 08:28N 27°54' W 082°25'0 0.0
2015-Apr-12 07:31N 27°54' W 082°25'0 0.0
2015-Apr-12 06:27N 27°54' W 082°25'0 0.0
2015-Apr-12 05:33N 27°54' W 082°25'0 0.0
2015-Apr-12 04:34N 27°54' W 082°25'0 0.0
2015-Apr-12 03:34N 27°54' W 082°25'0 0.0
2015-Apr-12 02:27N 27°54' W 082°25'0 0.0
2015-Apr-12 01:28N 27°54' W 082°25'0 0.0
2015-Apr-12 00:31N 27°54' W 082°25'0 0.0
2015-Apr-11 23:31N 27°54' W 082°25'0 0.0
2015-Apr-11 22:32N 27°54' W 082°25'0 0.0
2015-Apr-11 21:30N 27°54' W 082°25'0 0.0
2015-Apr-11 20:29N 27°54' W 082°25'0 0.0
2015-Apr-11 19:28N 27°54' W 082°25'0 0.0
2015-Apr-11 18:32N 27°54' W 082°25'0 0.0
2015-Apr-11 17:30N 27°54' W 082°25'0 0.0
2015-Apr-11 16:34N 27°54' W 082°25'0 0.0
2015-Apr-11 15:31N 27°54' W 082°25'0 0.0
2015-Apr-11 14:32N 27°54' W 082°25'0 0.0
2015-Apr-11 13:34N 27°54' W 082°25'0 0.0
2015-Apr-11 12:27N 27°54' W 082°25'0 0.0
2015-Apr-11 11:31N 27°54' W 082°25'0 0.0
2015-Apr-11 10:29N 27°54' W 082°25'2 1.6
2015-Apr-11 09:34N 27°54' W 082°26'59 1.8
2015-Apr-10 00:29N 27°03' W 083°01'1313.6
2015-Apr-09 23:33N 26°51' W 083°02'1413.5
2015-Apr-09 22:33N 26°37' W 083°02'  
Track history (hours):
 
Tides and Currents Weather Stations Pressure Air Temp Water Temp Dewpoint Dewpoint Depression Visibility Wind Speed Wind Dir Waves Ship Positions

Aurora

Last reported at 2015-Apr-12 13:19 UTC. Time now 2015-May-06 06:25 UTC.
Position N 27°41' W 082°34'.
Warning: this ship's position is 23 days out of date.

Length 170 m; draft 6.8 m.

Type: Tanker. MMSI: 538001356.

Date/timePositionNaut miles runAvg speedWind from/ knotsBaromVisibWave heightAir tempDewpointWater temp
2015-Apr-12 13:19N 27°41' W 082°34'811.2
2015-Apr-12 12:33N 27°48' W 082°29'7 7.0
2015-Apr-12 11:33N 27°54' W 082°25'1 0.5
2015-Apr-12 10:33N 27°54' W 082°25'0 0.0
2015-Apr-12 09:32N 27°54' W 082°25'0 0.0
2015-Apr-12 08:28N 27°54' W 082°25'0 0.0
2015-Apr-12 07:31N 27°54' W 082°25'0 0.0
2015-Apr-12 06:27N 27°54' W 082°25'0 0.0
2015-Apr-12 05:33N 27°54' W 082°25'0 0.0
2015-Apr-12 04:34N 27°54' W 082°25'0 0.0
2015-Apr-12 03:34N 27°54' W 082°25'0 0.0
2015-Apr-12 02:27N 27°54' W 082°25'0 0.0
2015-Apr-12 01:28N 27°54' W 082°25'0 0.0
2015-Apr-12 00:31N 27°54' W 082°25'0 0.0
2015-Apr-11 23:31N 27°54' W 082°25'0 0.0
2015-Apr-11 22:32N 27°54' W 082°25'0 0.0
2015-Apr-11 21:30N 27°54' W 082°25'0 0.0
2015-Apr-11 20:29N 27°54' W 082°25'0 0.0
2015-Apr-11 19:28N 27°54' W 082°25'0 0.0
2015-Apr-11 18:32N 27°54' W 082°25'0 0.0
2015-Apr-11 17:30N 27°54' W 082°25'0 0.0
2015-Apr-11 16:34N 27°54' W 082°25'0 0.0
2015-Apr-11 15:31N 27°54' W 082°25'0 0.0
2015-Apr-11 14:32N 27°54' W 082°25'0 0.0
2015-Apr-11 13:34N 27°54' W 082°25'0 0.0
2015-Apr-11 12:27N 27°54' W 082°25'0 0.0
2015-Apr-11 11:31N 27°54' W 082°25'0 0.0
2015-Apr-11 10:29N 27°54' W 082°25'2 1.6
2015-Apr-11 09:34N 27°54' W 082°26'59 1.8
2015-Apr-10 00:29N 27°03' W 083°01'1313.6
2015-Apr-09 23:33N 26°51' W 083°02'1413.5
2015-Apr-09 22:33N 26°37' W 083°02'  

Dump ship's entire track history